Schulte, Kansas
Current Conditions -  °F | °C
As of 2:53 PM on Friday 24 Oct 2014 (Local Time) from KICT Reporting Station
Scattered Clouds Scattered Clouds  
Wind Chill: 81°   Ceiling: Unl
Heat Index: 82°   Visibility: 10mi
Dew Point: 61°   Wind: 13mph
Humidity: 50%   Direction: 190°S
Pressure: 30"   Gusts: NA
Location:  37.6181°N, 97.4387°W
Report Text: KICT 241953Z 19011KT 10SM FEW250 SCT300 27/16 A3000 RMK AO2 SLP147 T02720161
Loading
Personal Weather Stations






























Interactive Weather Map
Tropical Storm Tracking
New forecast layout! Learn more

10-Day Weather Forecast

Advertisements
Track Severe Weather on mobile